Aérodrome :
LOGIN :

S'inscrire | Disclaimer

   EN    FR    IT 

 










Légende :    VFR   VFR Marginal   IFR   IFR Intensif   IFR Très Intensif
Visi : 
Plafond : 
>= 8 km
>= 3000ft
5 à 8 km
1000 à 3000 ft
1500m à 5 km
500 à 1000 ft
800 à 1500m
200 à 500 ft
< 800m
< 200 ft
Symboles :   Orages  Brouillard  Fortes neiges  Fortes précipitations  Vent > 20 kt
SIGMETs :   Divers  Orages  Givrage  Turbulence  Onde Orograph.  Cendres Volcan.






- Altitude de l'aérodrome : -13 ft
- Code IATA : LEY


EHLE - Lelystad

DERNIER METAR :
  • 232225Z AUTO 18010KT 160V220 9999 -SHRA BKN015CB 16/14 Q0997 RERA

METARs EXPIRÉS :
  • 232155Z AUTO 19009KT 160V220 8000 SHRA BKN015CB 16/14 Q0998 REDZ
  • 232125Z AUTO 18008KT 9999 +DZ FEW015CB 16/14 Q0998
  • 232055Z AUTO 21008KT 9999 -RA FEW015CB 16/14 Q0998 RERA REDZ
  • 232025Z AUTO 16007KT 9999 +DZRA FEW015CB 16/14 Q0999
  • 231955Z AUTO 16008KT 9999 DZRA FEW015CB 16/14 Q0999 TEMPO 6000 SHRA SCT020CB

TAF TAF EHLE
Valide du 23 à 18h jusqu'au 25 à 00h UTC


231710Z 2318/2424 18009KT 9999 SCT025
TEMPO 2320/2401 24015G25KT 6000 SHRA SCT020CB
PROB30
TEMPO 2321/2324 24020G30KT 4000 TSRA BKN014 SCT018CB
BECMG 2323/2402 24015G25KT
BECMG 2403/2406 20012KT
BECMG 2407/2410 20018G28KT
BECMG 2415/2418 19010KT
PROB40
TEMPO 2416/2424 23015G25KT 6000 RA -SHRA SCT018CB



MET'MAP, la Météo Aéronautique d'un coup d'oeil ! - Copyright ORBIFLY Décembre 2007 - Disclaimer

ORBIFLY MET'MAP TEAM :

Programmation & Développement : Alexandra Zaïnal
Sur une idée originale de : Baudouin d'Aumeries
Assistance à la programmation : Marc-Olivier Méhu
Soutien technique & logistique : Manuel Goepfert

Contact : metmap@orbifly.com




SOURCES & CREDITS :

   NOAA